| time (UTC) | temp C | wind direction | speed KPH | gust KPH | rain 1hr cm | rain 24hr cm | rain mn cm | humidity % | barometer mb |
| 20260504214903 | 14 | 27 | 6.4 | 22.5 | 0.00 | 0.00 | 0.00 | 38 | 1010.4 |
| 20260504214403 | 14 | 11 | 9.7 | 22.5 | 0.00 | 0.00 | 0.00 | 38 | 1010.3 |
| 20260504213904 | 14 | 8 | 14.5 | 22.5 | 0.00 | 0.00 | 0.00 | 38 | 1010.3 |
| 20260504213407 | 14 | 14 | 11.3 | 25.7 | 0.00 | 0.00 | 0.00 | 38 | 1010.3 |
| 20260504212904 | 14 | 330 | 8.0 | 25.7 | 0.00 | 0.00 | 0.00 | 39 | 1010.3 |
| 20260504212404 | 14 | 356 | 19.3 | 25.7 | 0.00 | 0.00 | 0.00 | 39 | 1010.6 |
| 20260504211903 | 14 | 9 | 17.7 | 24.1 | 0.00 | 0.00 | 0.00 | 39 | 1010.6 |
| 20260504211403 | 14 | 33 | 3.2 | 25.7 | 0.00 | 0.00 | 0.00 | 38 | 1010.6 |
| 20260504210904 | 15 | 31 | 9.7 | 25.7 | 0.00 | 0.00 | 0.00 | 38 | 1010.7 |
| 20260504210404 | 15 | 33 | 6.4 | 24.1 | 0.00 | 0.00 | 0.00 | 38 | 1010.6 |
| 20260504205904 | 14 | 16 | 8.0 | 25.7 | 0.00 | 0.00 | 0.00 | 38 | 1010.6 |
| 20260504205403 | 14 | 58 | 6.4 | 37.0 | 0.00 | 0.00 | 0.00 | 39 | 1010.7 |
| 20260504204903 | 14 | 351 | 16.1 | 37.0 | 0.00 | 0.00 | 0.00 | 39 | 1010.6 |
| 20260504204403 | 14 | 9 | 19.3 | 37.0 | 0.00 | 0.00 | 0.00 | 39 | 1010.6 |
| 20260504203904 | 14 | 4 | 25.7 | 37.0 | 0.00 | 0.00 | 0.00 | 39 | 1010.7 |
| 20260504203404 | 14 | 41 | 19.3 | 35.4 | 0.00 | 0.00 | 0.00 | 38 | 1010.6 |
| 20260504202903 | 15 | 19 | 22.5 | 33.8 | 0.00 | 0.00 | 0.00 | 38 | 1010.6 |
| 20260504202403 | 15 | 40 | 14.5 | 41.8 | 0.00 | 0.00 | 0.00 | 36 | 1010.6 |
| 20260504201903 | 14 | 28 | 16.1 | 41.8 | 0.00 | 0.00 | 0.00 | 38 | 1010.7 |
| 20260504200904 | 15 | 31 | 9.7 | 33.8 | 0.00 | 0.00 | 0.00 | 36 | 1010.5 |
| 20260504200404 | 15 | 19 | 19.3 | 33.8 | 0.00 | 0.00 | 0.00 | 37 | 1010.6 |
| 20260504195903 | 15 | 42 | 19.3 | 38.6 | 0.00 | 0.00 | 0.00 | 38 | 1010.6 |
| 20260504195403 | 14 | 35 | 12.9 | 40.2 | 0.00 | 0.00 | 0.00 | 38 | 1010.6 |
| 20260504194403 | 15 | 30 | 22.5 | 40.2 | 0.00 | 0.00 | 0.00 | 38 | 1010.5 |
| 20260504193903 | 15 | 8 | 32.2 | 40.2 | 0.00 | 0.00 | 0.00 | 38 | 1010.5 |
| 20260504193403 | 15 | 29 | 22.5 | 41.8 | 0.00 | 0.00 | 0.00 | 37 | 1010.4 |
| 20260504192904 | 15 | 5 | 20.9 | 56.3 | 0.00 | 0.00 | 0.00 | 37 | 1010.4 |
| 20260504191904 | 15 | 19 | 22.5 | 57.9 | 0.00 | 0.00 | 0.00 | 37 | 1010.3 |
| 20260504191404 | 15 | 27 | 29.0 | 59.5 | 0.00 | 0.00 | 0.00 | 38 | 1010.3 |
| 20260504190903 | 15 | 14 | 35.4 | 59.5 | 0.00 | 0.00 | 0.00 | 37 | 1010.3 |
| 20260504190403 | 15 | 30 | 27.4 | 59.5 | 0.00 | 0.00 | 0.00 | 34 | 1010.1 |
| 20260504185903 | 15 | 3 | 41.8 | 53.1 | 0.00 | 0.00 | 0.00 | 35 | 1010.0 |
| 20260504185404 | 15 | 1 | 37.0 | 57.9 | 0.00 | 0.00 | 0.00 | 36 | 1010.1 |
| 20260504184904 | 15 | 13 | 40.2 | 57.9 | 0.00 | 0.00 | 0.00 | 37 | 1010.1 |
| 20260504184404 | 15 | 358 | 29.0 | 57.9 | 0.00 | 0.00 | 0.00 | 35 | 1010.1 |
| 20260504183903 | 15 | 23 | 33.8 | 59.5 | 0.00 | 0.00 | 0.00 | 36 | 1010.1 |
| 20260504182903 | 15 | 1 | 35.4 | 61.2 | 0.00 | 0.00 | 0.00 | 34 | 1010.2 |
| 20260504182403 | 15 | 6 | 48.3 | 62.8 | 0.00 | 0.00 | 0.00 | 34 | 1010.0 |
| 20260504181903 | 16 | 5 | 45.1 | 62.8 | 0.00 | 0.00 | 0.00 | 34 | 1010.2 |
| 20260504181404 | 15 | 10 | 49.9 | 69.2 | 0.00 | 0.00 | 0.00 | 36 | 1010.1 |
| 20260504180903 | 15 | 352 | 51.5 | 69.2 | 0.00 | 0.00 | 0.00 | 36 | 1010.2 |
| 20260504180403 | 15 | 357 | 56.3 | 69.2 | 0.00 | 0.00 | 0.00 | 36 | 1009.9 |
| 20260504175904 | 16 | 12 | 46.7 | 70.8 | 0.00 | 0.00 | 0.00 | 33 | 1009.9 |
| 20260504175404 | 16 | 10 | 38.6 | 70.8 | 0.00 | 0.00 | 0.00 | 31 | 1009.9 |
| 20260504174903 | 15 | 11 | 53.1 | 70.8 | 0.00 | 0.00 | 0.00 | 32 | 1009.9 |
| 20260504174403 | 15 | 17 | 48.3 | 70.8 | 0.00 | 0.00 | 0.00 | 31 | 1010.0 |
| 20260504173903 | 15 | 14 | 41.8 | 69.2 | 0.00 | 0.00 | 0.00 | 31 | 1010.0 |
| 20260504172904 | 16 | 9 | 46.7 | 62.8 | 0.00 | 0.00 | 0.00 | 30 | 1009.9 |
| 20260504171904 | 17 | 356 | 29.0 | 46.7 | 0.00 | 0.00 | 0.00 | 25 | 1010.0 |
| 20260504171403 | 17 | 337 | 4.8 | 22.5 | 0.00 | 0.00 | 0.00 | 23 | 1009.6 |
| 20260504170904 | 18 | 1 | 9.7 | 29.0 | 0.00 | 0.00 | 0.00 | 22 | 1009.7 |
| 20260504170403 | 17 | 292 | 12.9 | 29.0 | 0.00 | 0.00 | 0.00 | 22 | 1009.6 |
| 20260504160403 | 16 | 322 | 8.0 | 20.9 | 0.00 | 0.00 | 0.00 | 23 | 1009.6 |
| 20260504150903 | 16 | 279 | 19.3 | 32.2 | 0.00 | 0.00 | 0.00 | 24 | 1009.7 |
| 20260504150404 | 16 | 323 | 20.9 | 29.0 | 0.00 | 0.00 | 0.00 | 24 | 1009.6 |
| 20260504140404 | 13 | 305 | 20.9 | 25.7 | 0.00 | 0.00 | 0.00 | 28 | 1009.7 |
| 20260504130403 | 10 | 259 | 12.9 | 20.9 | 0.00 | 0.00 | 0.00 | 34 | 1009.5 |
| 20260504110404 | 5 | 242 | 19.3 | 20.9 | 0.00 | 0.00 | 0.00 | 57 | 1009.2 |
| 20260504100403 | 4 | 246 | 11.3 | 14.5 | 0.00 | 0.00 | 0.00 | 62 | 1009.5 |
| 20260504081403 | 5 | 274 | 14.5 | 19.3 | 0.00 | 0.00 | 0.00 | 57 | 1010.7 |
| 20260504080903 | 5 | 267 | 12.9 | 16.1 | 0.00 | 0.00 | 0.00 | 59 | 1010.8 |
| 20260504045904 | 8 | 15 | 0.0 | 0.0 | 0.00 | 0.00 | 0.00 | 48 | 1012.3 |
| 20260504045403 | 8 | 15 | 0.0 | 3.2 | 0.00 | 0.00 | 0.00 | 47 | 1012.1 |
| 20260504044904 | 8 | 15 | 0.0 | 3.2 | 0.00 | 0.00 | 0.00 | 47 | 1012.3 |
| 20260504043903 | 8 | 17 | 3.2 | 11.3 | 0.00 | 0.00 | 0.00 | 46 | 1012.3 |
| 20260504043404 | 9 | 16 | 4.8 | 12.9 | 0.00 | 0.00 | 0.00 | 45 | 1012.4 |
| 20260504042904 | 9 | 11 | 9.7 | 12.9 | 0.00 | 0.00 | 0.00 | 46 | 1012.4 |
| 20260504042403 | 8 | 13 | 9.7 | 12.9 | 0.00 | 0.00 | 0.00 | 46 | 1012.4 |
| 20260504041904 | 9 | 20 | 8.0 | 12.9 | 0.00 | 0.00 | 0.00 | 45 | 1012.3 |
| 20260504041404 | 9 | 17 | 9.7 | 14.5 | 0.00 | 0.00 | 0.00 | 45 | 1012.4 |
| 20260504040903 | 10 | 21 | 8.0 | 14.5 | 0.00 | 0.00 | 0.00 | 44 | 1012.5 |
| 20260504040404 | 10 | 16 | 11.3 | 14.5 | 0.00 | 0.00 | 0.00 | 44 | 1012.5 |
| 20260504035904 | 10 | 20 | 8.0 | 12.9 | 0.00 | 0.00 | 0.00 | 44 | 1012.6 |
| 20260504034903 | 10 | 23 | 4.8 | 11.3 | 0.00 | 0.00 | 0.00 | 43 | 1012.3 |
| 20260504034404 | 10 | 34 | 3.2 | 8.0 | 0.00 | 0.00 | 0.00 | 43 | 1012.6 |
| 20260504033403 | 10 | 34 | 3.2 | 8.0 | 0.00 | 0.00 | 0.00 | 43 | 1012.5 |
| 20260504032904 | 10 | 44 | 4.8 | 11.3 | 0.00 | 0.00 | 0.00 | 43 | 1012.4 |
| 20260504032403 | 10 | 44 | 8.0 | 11.3 | 0.00 | 0.00 | 0.00 | 43 | 1012.4 |
| 20260504031404 | 10 | 53 | 9.7 | 12.9 | 0.00 | 0.00 | 0.00 | 42 | 1012.3 |
| 20260504030903 | 10 | 54 | 9.7 | 12.9 | 0.00 | 0.00 | 0.00 | 42 | 1012.3 |
| 20260504030404 | 10 | 42 | 8.0 | 16.1 | 0.00 | 0.00 | 0.00 | 42 | 1012.2 |
| 20260504025903 | 10 | 34 | 4.8 | 16.1 | 0.00 | 0.00 | 0.00 | 42 | 1012.2 |
| 20260504025403 | 11 | 46 | 11.3 | 19.3 | 0.00 | 0.00 | 0.00 | 41 | 1012.2 |
| 20260504024904 | 11 | 56 | 12.9 | 20.9 | 0.00 | 0.00 | 0.00 | 41 | 1012.3 |
| 20260504023904 | 11 | 48 | 14.5 | 22.5 | 0.00 | 0.00 | 0.00 | 39 | 1012.1 |
| 20260504023403 | 12 | 45 | 16.1 | 24.1 | 0.00 | 0.00 | 0.00 | 38 | 1012.3 |
| 20260504022903 | 12 | 47 | 16.1 | 25.7 | 0.00 | 0.00 | 0.00 | 37 | 1012.3 |
| 20260504022404 | 12 | 28 | 16.1 | 25.7 | 0.00 | 0.00 | 0.00 | 36 | 1012.4 |
| 20260504021903 | 13 | 40 | 17.7 | 25.7 | 0.00 | 0.00 | 0.00 | 35 | 1012.2 |
| 20260504020903 | 13 | 33 | 14.5 | 25.7 | 0.00 | 0.00 | 0.00 | 34 | 1012.2 |
| 20260504020403 | 13 | 32 | 16.1 | 32.2 | 0.00 | 0.00 | 0.00 | 34 | 1012.2 |
| 20260504015903 | 13 | 48 | 17.7 | 32.2 | 0.00 | 0.00 | 0.00 | 33 | 1012.0 |
| 20260504015404 | 14 | 23 | 16.1 | 32.2 | 0.00 | 0.00 | 0.00 | 33 | 1012.1 |
| 20260504014903 | 14 | 52 | 25.7 | 35.4 | 0.00 | 0.00 | 0.00 | 32 | 1012.1 |
| 20260504014404 | 14 | 49 | 22.5 | 37.0 | 0.00 | 0.00 | 0.00 | 32 | 1011.9 |
| 20260504013903 | 14 | 42 | 22.5 | 51.5 | 0.00 | 0.00 | 0.00 | 32 | 1012.0 |
| 20260504013404 | 15 | 31 | 22.5 | 53.1 | 0.00 | 0.00 | 0.00 | 32 | 1012.2 |
| 20260504012904 | 15 | 16 | 33.8 | 57.9 | 0.00 | 0.00 | 0.00 | 31 | 1012.1 |
| 20260504012403 | 16 | 15 | 45.1 | 57.9 | 0.00 | 0.00 | 0.00 | 28 | 1012.0 |
| 20260504011904 | 17 | 343 | 27.4 | 38.6 | 0.00 | 0.00 | 0.00 | 24 | 1012.0 |
| 20260504011403 | 17 | 7 | 16.1 | 33.8 | 0.00 | 0.00 | 0.00 | 22 | 1011.9 |
| 20260504010403 | 17 | 5 | 19.3 | 37.0 | 0.00 | 0.00 | 0.00 | 22 | 1011.8 |
| 20260504005903 | 17 | 20 | 16.1 | 37.0 | 0.00 | 0.00 | 0.00 | 22 | 1011.7 |
| 20260504005404 | 17 | 36 | 14.5 | 33.8 | 0.00 | 0.00 | 0.00 | 23 | 1011.8 |
| 20260504004903 | 17 | 28 | 16.1 | 38.6 | 0.00 | 0.00 | 0.00 | 23 | 1012.0 |
| 20260504004404 | 17 | 17 | 20.9 | 38.6 | 0.00 | 0.00 | 0.00 | 23 | 1012.1 |
| 20260504003903 | 17 | 32 | 22.5 | 41.8 | 0.00 | 0.00 | 0.00 | 23 | 1011.9 |
| 20260504003404 | 17 | 13 | 22.5 | 41.8 | 0.00 | 0.00 | 0.00 | 23 | 1012.0 |
| 20260504002903 | 17 | 17 | 27.4 | 38.6 | 0.00 | 0.00 | 0.00 | 23 | 1011.9 |
| 20260504002404 | 17 | 15 | 27.4 | 40.2 | 0.00 | 0.00 | 0.00 | 22 | 1011.8 |
| 20260504001904 | 17 | 10 | 25.7 | 49.9 | 0.00 | 0.00 | 0.00 | 22 | 1011.9 |
| 20260504001403 | 18 | 351 | 24.1 | 49.9 | 0.00 | 0.00 | 0.00 | 21 | 1011.9 |
| 20260504000904 | 19 | 319 | 37.0 | 46.7 | 0.00 | 0.00 | 0.00 | 15 | 1011.8 |
| 20260504000403 | 18 | 296 | 25.7 | 41.8 | 0.00 | 0.00 | 0.00 | 15 | 1011.7 |
| 20260503235904 | 19 | 307 | 27.4 | 49.9 | 0.00 | 0.00 | 0.00 | 15 | 1011.8 |
| 20260503235403 | 19 | 292 | 29.0 | 49.9 | 0.00 | 0.00 | 0.00 | 15 | 1011.8 |
| 20260503234904 | 19 | 325 | 32.2 | 41.8 | 0.00 | 0.00 | 0.00 | 15 | 1012.0 |
| 20260503234403 | 19 | 327 | 33.8 | 40.2 | 0.00 | 0.00 | 0.00 | 15 | 1011.7 |
| 20260503233404 | 19 | 314 | 20.9 | 33.8 | 0.00 | 0.00 | 0.00 | 14 | 1011.8 |
| 20260503232404 | 19 | 276 | 19.3 | 35.4 | 0.00 | 0.00 | 0.00 | 14 | 1012.1 |
| 20260503231903 | 19 | 304 | 20.9 | 33.8 | 0.00 | 0.00 | 0.00 | 15 | 1011.9 |
| 20260503231404 | 19 | 274 | 19.3 | 32.2 | 0.00 | 0.00 | 0.00 | 14 | 1012.1 |
| 20260503230903 | 19 | 236 | 14.5 | 32.2 | 0.00 | 0.00 | 0.00 | 14 | 1012.0 |
| 20260503230404 | 19 | 314 | 20.9 | 33.8 | 0.00 | 0.00 | 0.00 | 15 | 1012.1 |
| 20260503225903 | 18 | 311 | 16.1 | 33.8 | 0.00 | 0.00 | 0.00 | 14 | 1012.1 |
| 20260503225404 | 19 | 275 | 19.3 | 32.2 | 0.00 | 0.00 | 0.00 | 14 | 1012.1 |
| 20260503224904 | 19 | 261 | 20.9 | 32.2 | 0.00 | 0.00 | 0.00 | 14 | 1012.2 |
| 20260503224404 | 18 | 358 | 14.5 | 33.8 | 0.00 | 0.00 | 0.00 | 20 | 1012.2 |
| 20260503223904 | 18 | 295 | 16.1 | 33.8 | 0.00 | 0.00 | 0.00 | 15 | 1012.0 |
| 20260503223403 | 19 | 289 | 20.9 | 33.8 | 0.00 | 0.00 | 0.00 | 15 | 1012.1 |
| 20260503222904 | 19 | 323 | 17.7 | 33.8 | 0.00 | 0.00 | 0.00 | 15 | 1012.1 |
| 20260503222403 | 19 | 284 | 16.1 | 32.2 | 0.00 | 0.00 | 0.00 | 16 | 1012.0 |
| 20260503221904 | 19 | 276 | 14.5 | 35.4 | 0.00 | 0.00 | 0.00 | 16 | 1012.3 |
| 20260503221403 | 19 | 327 | 22.5 | 35.4 | 0.00 | 0.00 | 0.00 | 16 | 1012.4 |
| 20260503220903 | 18 | 309 | 14.5 | 19.3 | 0.00 | 0.00 | 0.00 | 17 | 1012.3 |
| 20260503220403 | 18 | 275 | 9.7 | 22.5 | 0.00 | 0.00 | 0.00 | 19 | 1012.3 |
| 20260503215903 | 18 | 296 | 9.7 | 25.7 | 0.00 | 0.00 | 0.00 | 18 | 1012.4 |
| 20260503215404 | 18 | 261 | 12.9 | 32.2 | 0.00 | 0.00 | 0.00 | 18 | 1012.5 |